MV Boron Navigator — H9DA — position and weather

sailwx.info

Track history (hours):
 
Tides and Currents Weather Stations Pressure Air Temp Water Temp Dewpoint Dewpoint Depression Visibility Wind Speed Wind Dir Waves Ship Positions

MV Boron Navigator

Last reported at 2018-Feb-20 08:13 UTC. Time now 2018-Feb-20 15:51 UTC.
Position N 35°37' E 139°47'.

Length 189.8 m; beam 32.3 m.

Type: Cargo ship. MMSI: 357109000.

Date/timePositionNaut miles runAvg speedWind from/ knotsBaromVisibWave heightAir tempDewpointWater temp
2018-Feb-20 08:13N 35°37' E 139°47'0 0.0
2018-Feb-20 07:49N 35°37' E 139°47'0 0.0
2018-Feb-20 05:19N 35°37' E 139°47'0 0.0
2018-Feb-19 22:01N 35°37' E 139°47'0 0.0
2018-Feb-19 19:25N 35°37' E 139°47'0 0.0
2018-Feb-19 18:55N 35°37' E 139°47'0 0.0
2018-Feb-18 22:53N 35°37' E 139°47'1 1.7
2018-Feb-18 22:30N 35°37' E 139°48'3 6.6
2018-Feb-18 22:00N 35°35' E 139°51'3 6.3
2018-Feb-18 21:29N 35°33' E 139°54'0 0.1
2018-Feb-18 20:53N 35°33' E 139°54'0 0.0
2018-Feb-18 20:26N 35°33' E 139°54'0 0.1
2018-Feb-18 19:59N 35°33' E 139°54'0 0.0
2018-Feb-18 19:26N 35°33' E 139°54'0 0.0
2018-Feb-18 18:59N 35°33' E 139°54'0 0.0
2018-Feb-18 18:29N 35°33' E 139°54'0 0.0
2018-Feb-18 17:59N 35°33' E 139°54'0 0.0
2018-Feb-18 17:29N 35°33' E 139°54'0 0.0
2018-Feb-18 16:59N 35°33' E 139°54'0 0.1
2018-Feb-18 16:26N 35°33' E 139°54'0 0.0
2018-Feb-18 15:56N 35°33' E 139°54'0 0.1
2018-Feb-18 15:29N 35°33' E 139°54'0 0.2
2018-Feb-18 14:59N 35°33' E 139°54'0 0.2
2018-Feb-18 14:29N 35°33' E 139°54'0 0.1
2018-Feb-18 13:59N 35°33' E 139°54'0 0.1
2018-Feb-18 13:29N 35°33' E 139°54'0 0.1
2018-Feb-18 12:59N 35°33' E 139°54'0 0.1
2018-Feb-18 12:29N 35°33' E 139°54'0 0.1
2018-Feb-18 11:56N 35°33' E 139°54'0 0.1
2018-Feb-18 11:29N 35°33' E 139°54'0 0.1
2018-Feb-18 10:56N 35°33' E 139°54'0 0.1
2018-Feb-18 10:29N 35°33' E 139°54'0 0.1
2018-Feb-18 09:59N 35°33' E 139°54'0 0.0
2018-Feb-18 09:29N 35°33' E 139°54'0 0.1
2018-Feb-18 08:56N 35°33' E 139°54'0 0.1
2018-Feb-18 08:29N 35°33' E 139°54'0 0.1
2018-Feb-18 07:59N 35°33' E 139°54'0 0.1
2018-Feb-18 07:29N 35°33' E 139°54'0 0.1
2018-Feb-18 06:59N 35°33' E 139°54'0 0.1
2018-Feb-18 06:29N 35°33' E 139°54'0 0.0
2018-Feb-18 05:59N 35°33' E 139°54'0 0.0
2018-Feb-18 05:29N 35°33' E 139°54'0 0.1
2018-Feb-18 04:59N 35°33' E 139°54'0 0.0
2018-Feb-18 04:29N 35°33' E 139°54'0 0.0
2018-Feb-18 03:59N 35°33' E 139°54'0 0.0
2018-Feb-18 03:29N 35°33' E 139°54'0 0.0
2018-Feb-18 02:59N 35°33' E 139°54'1 1.4
2018-Feb-18 02:30N 35°33' E 139°54'611.8
2018-Feb-18 02:00N 35°27' E 139°50'612.9
2018-Feb-18 01:31N 35°22' E 139°46'4 8.6
2018-Feb-18 01:01N 35°18' E 139°45'510.9
2018-Feb-18 00:30N 35°13' E 139°47'4 8.2
2018-Feb-18 00:00N 35°09' E 139°47'5 9.5
2018-Feb-17 23:31N 35°04' E 139°45'4 8.7
2018-Feb-17 23:00N 35°00' E 139°43'3 5.9
2018-Feb-17 22:30N 34°58' E 139°42'3 5.6
2018-Feb-17 22:00N 34°55' E 139°42'4 7.7
2018-Feb-17 21:29N 34°51' E 139°43'5 9.2
2018-Feb-17 20:57N 34°46' E 139°44'510.1
2018-Feb-17 20:26N 34°41' E 139°46'2 0.5
2018-Feb-17 16:45N 34°39' E 139°46'1 2.4
2018-Feb-17 16:24N 34°40' E 139°45'1 2.4
2018-Feb-17 15:52N 34°41' E 139°44'1 3.1
2018-Feb-17 15:29N 34°41' E 139°42'714.2
2018-Feb-17 15:00N 34°39' E 139°34'918.7
2018-Feb-17 14:30N 34°37' E 139°23'918.9
2018-Feb-17 14:00N 34°34' E 139°12'918.1
2018-Feb-17 13:30N 34°30' E 139°02'917.5
2018-Feb-17 13:00N 34°26' E 138°53'1016.9
2018-Feb-17 12:24N 34°21' E 138°42'716.5
2018-Feb-17 11:59N 34°19' E 138°34'1115.9
2018-Feb-17 11:17N 34°15' E 138°22'615.7
2018-Feb-17 10:56N 34°13' E 138°16'26416.2
2018-Feb-16 18:39N 32°43' E 133°17'7115.7
2018-Feb-16 14:08N 33°15' E 132°01'318.1
2018-Feb-16 13:58N 33°17' E 131°60'818.2
2018-Feb-16 13:30N 33°25' E 131°55'917.6
2018-Feb-16 13:00N 33°32' E 131°51'917.1
2018-Feb-16 12:30N 33°40' E 131°46'815.6
2018-Feb-16 12:00N 33°46' E 131°39'816.7
2018-Feb-16 11:30N 33°47' E 131°29'816.6
2018-Feb-16 11:00N 33°49' E 131°20'816.2
2018-Feb-16 10:31N 33°52' E 131°11'815.8
2018-Feb-16 10:00N 33°57' E 131°03'3 6.9
2018-Feb-16 09:30N 33°58' E 130°59'1 1.2
2018-Feb-16 08:58N 33°58' E 130°59'0 0.0
2018-Feb-16 08:28N 33°58' E 130°59'0 0.0
2018-Feb-16 07:58N 33°58' E 130°59'0 0.0
2018-Feb-16 07:28N 33°58' E 130°59'0 0.0
2018-Feb-16 06:58N 33°58' E 130°59'0 0.0
2018-Feb-16 06:28N 33°58' E 130°59'0 0.0
2018-Feb-16 05:58N 33°58' E 130°59'0 0.0
2018-Feb-16 05:28N 33°58' E 130°59'0 0.0
2018-Feb-16 04:52N 33°58' E 130°59'0 0.0
2018-Feb-16 04:28N 33°58' E 130°59'0 0.5
2018-Feb-16 04:00N 33°58' E 130°59'3 6.2
2018-Feb-16 03:30N 33°55' E 130°56'3 5.0
2018-Feb-16 03:00N 33°55' E 130°53'4 8.0
2018-Feb-16 02:30N 33°59' E 130°52'5 9.7
2018-Feb-16 02:00N 34°03' E 130°48'5 9.2
2018-Feb-16 01:30N 34°04' E 130°43'713.8
2018-Feb-16 01:00N 34°03' E 130°35'816.4
2018-Feb-16 00:30N 34°02' E 130°25'816.1
2018-Feb-16 00:00N 34°01' E 130°16'816.2
2018-Feb-15 23:30N 33°59' E 130°06'816.1
2018-Feb-15 23:00N 33°58' E 129°57'65617.2
2018-Feb-14 08:59N 25°51' E 121°30'919.0
2018-Feb-14 08:30N 25°45' E 121°22'1019.4
2018-Feb-14 07:58N 25°39' E 121°13'920.1
2018-Feb-14 07:31N 25°33' E 121°05'1019.8
2018-Feb-14 07:01N 25°26' E 120°58'1020.2
2018-Feb-14 06:31N 25°17' E 120°52'1020.3
2018-Feb-14 06:01N 25°08' E 120°47'1020.1
2018-Feb-14 05:30N 24°59' E 120°42'1019.8
2018-Feb-14 05:00N 24°50' E 120°37'1019.4
2018-Feb-14 04:30N 24°41' E 120°33'1019.6
2018-Feb-14 04:00N 24°32' E 120°29'918.6
2018-Feb-14 03:31N 24°23' E 120°26'713.0
2018-Feb-14 03:00N 24°18' E 120°30'1 2.7
2018-Feb-14 02:30N 24°17' E 120°31'0 0.0
2018-Feb-14 02:00N 24°17' E 120°31'0 0.0
2018-Feb-14 01:27N 24°17' E 120°31'0 0.0
2018-Feb-14 00:57N 24°17' E 120°31'0 0.0
2018-Feb-14 00:24N 24°17' E 120°31'0 0.0
2018-Feb-13 23:54N 24°17' E 120°31'0 0.0
2018-Feb-13 22:51N 24°17' E 120°31'0 0.0
2018-Feb-13 22:30N 24°17' E 120°31'0 0.0
2018-Feb-13 21:54N 24°17' E 120°31'  
Track history (hours):
 
Tides and Currents Weather Stations Pressure Air Temp Water Temp Dewpoint Dewpoint Depression Visibility Wind Speed Wind Dir Waves Ship Positions

MV Boron Navigator

Last reported at 2018-Feb-20 08:13 UTC. Time now 2018-Feb-20 15:51 UTC.
Position N 35°37' E 139°47'.

Length 189.8 m; beam 32.3 m.

Type: Cargo ship. MMSI: 357109000.

Date/timePositionNaut miles runAvg speedWind from/ knotsBaromVisibWave heightAir tempDewpointWater temp
2018-Feb-20 08:13N 35°37' E 139°47'0 0.0
2018-Feb-20 07:49N 35°37' E 139°47'0 0.0
2018-Feb-20 05:19N 35°37' E 139°47'0 0.0
2018-Feb-19 22:01N 35°37' E 139°47'0 0.0
2018-Feb-19 19:25N 35°37' E 139°47'0 0.0
2018-Feb-19 18:55N 35°37' E 139°47'0 0.0
2018-Feb-18 22:53N 35°37' E 139°47'1 1.7
2018-Feb-18 22:30N 35°37' E 139°48'3 6.6
2018-Feb-18 22:00N 35°35' E 139°51'3 6.3
2018-Feb-18 21:29N 35°33' E 139°54'0 0.1
2018-Feb-18 20:53N 35°33' E 139°54'0 0.0
2018-Feb-18 20:26N 35°33' E 139°54'0 0.1
2018-Feb-18 19:59N 35°33' E 139°54'0 0.0
2018-Feb-18 19:26N 35°33' E 139°54'0 0.0
2018-Feb-18 18:59N 35°33' E 139°54'0 0.0
2018-Feb-18 18:29N 35°33' E 139°54'0 0.0
2018-Feb-18 17:59N 35°33' E 139°54'0 0.0
2018-Feb-18 17:29N 35°33' E 139°54'0 0.0
2018-Feb-18 16:59N 35°33' E 139°54'0 0.1
2018-Feb-18 16:26N 35°33' E 139°54'0 0.0
2018-Feb-18 15:56N 35°33' E 139°54'0 0.1
2018-Feb-18 15:29N 35°33' E 139°54'0 0.2
2018-Feb-18 14:59N 35°33' E 139°54'0 0.2
2018-Feb-18 14:29N 35°33' E 139°54'0 0.1
2018-Feb-18 13:59N 35°33' E 139°54'0 0.1
2018-Feb-18 13:29N 35°33' E 139°54'0 0.1
2018-Feb-18 12:59N 35°33' E 139°54'0 0.1
2018-Feb-18 12:29N 35°33' E 139°54'0 0.1
2018-Feb-18 11:56N 35°33' E 139°54'0 0.1
2018-Feb-18 11:29N 35°33' E 139°54'0 0.1
2018-Feb-18 10:56N 35°33' E 139°54'0 0.1
2018-Feb-18 10:29N 35°33' E 139°54'0 0.1
2018-Feb-18 09:59N 35°33' E 139°54'0 0.0
2018-Feb-18 09:29N 35°33' E 139°54'0 0.1
2018-Feb-18 08:56N 35°33' E 139°54'0 0.1
2018-Feb-18 08:29N 35°33' E 139°54'0 0.1
2018-Feb-18 07:59N 35°33' E 139°54'0 0.1
2018-Feb-18 07:29N 35°33' E 139°54'0 0.1
2018-Feb-18 06:59N 35°33' E 139°54'0 0.1
2018-Feb-18 06:29N 35°33' E 139°54'0 0.0
2018-Feb-18 05:59N 35°33' E 139°54'0 0.0
2018-Feb-18 05:29N 35°33' E 139°54'0 0.1
2018-Feb-18 04:59N 35°33' E 139°54'0 0.0
2018-Feb-18 04:29N 35°33' E 139°54'0 0.0
2018-Feb-18 03:59N 35°33' E 139°54'0 0.0
2018-Feb-18 03:29N 35°33' E 139°54'0 0.0
2018-Feb-18 02:59N 35°33' E 139°54'1 1.4
2018-Feb-18 02:30N 35°33' E 139°54'611.8
2018-Feb-18 02:00N 35°27' E 139°50'612.9
2018-Feb-18 01:31N 35°22' E 139°46'4 8.6
2018-Feb-18 01:01N 35°18' E 139°45'510.9
2018-Feb-18 00:30N 35°13' E 139°47'4 8.2
2018-Feb-18 00:00N 35°09' E 139°47'5 9.5
2018-Feb-17 23:31N 35°04' E 139°45'4 8.7
2018-Feb-17 23:00N 35°00' E 139°43'3 5.9
2018-Feb-17 22:30N 34°58' E 139°42'3 5.6
2018-Feb-17 22:00N 34°55' E 139°42'4 7.7
2018-Feb-17 21:29N 34°51' E 139°43'5 9.2
2018-Feb-17 20:57N 34°46' E 139°44'510.1
2018-Feb-17 20:26N 34°41' E 139°46'2 0.5
2018-Feb-17 16:45N 34°39' E 139°46'1 2.4
2018-Feb-17 16:24N 34°40' E 139°45'1 2.4
2018-Feb-17 15:52N 34°41' E 139°44'1 3.1
2018-Feb-17 15:29N 34°41' E 139°42'714.2
2018-Feb-17 15:00N 34°39' E 139°34'918.7
2018-Feb-17 14:30N 34°37' E 139°23'918.9
2018-Feb-17 14:00N 34°34' E 139°12'918.1
2018-Feb-17 13:30N 34°30' E 139°02'917.5
2018-Feb-17 13:00N 34°26' E 138°53'1016.9
2018-Feb-17 12:24N 34°21' E 138°42'716.5
2018-Feb-17 11:59N 34°19' E 138°34'1115.9
2018-Feb-17 11:17N 34°15' E 138°22'615.7
2018-Feb-17 10:56N 34°13' E 138°16'26416.2
2018-Feb-16 18:39N 32°43' E 133°17'7115.7
2018-Feb-16 14:08N 33°15' E 132°01'318.1
2018-Feb-16 13:58N 33°17' E 131°60'818.2
2018-Feb-16 13:30N 33°25' E 131°55'917.6
2018-Feb-16 13:00N 33°32' E 131°51'917.1
2018-Feb-16 12:30N 33°40' E 131°46'815.6
2018-Feb-16 12:00N 33°46' E 131°39'816.7
2018-Feb-16 11:30N 33°47' E 131°29'816.6
2018-Feb-16 11:00N 33°49' E 131°20'816.2
2018-Feb-16 10:31N 33°52' E 131°11'815.8
2018-Feb-16 10:00N 33°57' E 131°03'3 6.9
2018-Feb-16 09:30N 33°58' E 130°59'1 1.2
2018-Feb-16 08:58N 33°58' E 130°59'0 0.0
2018-Feb-16 08:28N 33°58' E 130°59'0 0.0
2018-Feb-16 07:58N 33°58' E 130°59'0 0.0
2018-Feb-16 07:28N 33°58' E 130°59'0 0.0
2018-Feb-16 06:58N 33°58' E 130°59'0 0.0
2018-Feb-16 06:28N 33°58' E 130°59'0 0.0
2018-Feb-16 05:58N 33°58' E 130°59'0 0.0
2018-Feb-16 05:28N 33°58' E 130°59'0 0.0
2018-Feb-16 04:52N 33°58' E 130°59'0 0.0
2018-Feb-16 04:28N 33°58' E 130°59'0 0.5
2018-Feb-16 04:00N 33°58' E 130°59'3 6.2
2018-Feb-16 03:30N 33°55' E 130°56'3 5.0
2018-Feb-16 03:00N 33°55' E 130°53'4 8.0
2018-Feb-16 02:30N 33°59' E 130°52'5 9.7
2018-Feb-16 02:00N 34°03' E 130°48'5 9.2
2018-Feb-16 01:30N 34°04' E 130°43'713.8
2018-Feb-16 01:00N 34°03' E 130°35'816.4
2018-Feb-16 00:30N 34°02' E 130°25'816.1
2018-Feb-16 00:00N 34°01' E 130°16'816.2
2018-Feb-15 23:30N 33°59' E 130°06'816.1
2018-Feb-15 23:00N 33°58' E 129°57'65617.2
2018-Feb-14 08:59N 25°51' E 121°30'919.0
2018-Feb-14 08:30N 25°45' E 121°22'1019.4
2018-Feb-14 07:58N 25°39' E 121°13'920.1
2018-Feb-14 07:31N 25°33' E 121°05'1019.8
2018-Feb-14 07:01N 25°26' E 120°58'1020.2
2018-Feb-14 06:31N 25°17' E 120°52'1020.3
2018-Feb-14 06:01N 25°08' E 120°47'1020.1
2018-Feb-14 05:30N 24°59' E 120°42'1019.8
2018-Feb-14 05:00N 24°50' E 120°37'1019.4
2018-Feb-14 04:30N 24°41' E 120°33'1019.6
2018-Feb-14 04:00N 24°32' E 120°29'918.6
2018-Feb-14 03:31N 24°23' E 120°26'713.0
2018-Feb-14 03:00N 24°18' E 120°30'1 2.7
2018-Feb-14 02:30N 24°17' E 120°31'0 0.0
2018-Feb-14 02:00N 24°17' E 120°31'0 0.0
2018-Feb-14 01:27N 24°17' E 120°31'0 0.0
2018-Feb-14 00:57N 24°17' E 120°31'0 0.0
2018-Feb-14 00:24N 24°17' E 120°31'0 0.0
2018-Feb-13 23:54N 24°17' E 120°31'0 0.0
2018-Feb-13 22:51N 24°17' E 120°31'0 0.0
2018-Feb-13 22:30N 24°17' E 120°31'0 0.0
2018-Feb-13 21:54N 24°17' E 120°31'  

Dump ship's entire track history